createdAt,value
2018-06-23T00:00:20.079Z,20.93
2018-06-23T00:02:49.086Z,15.63
2018-06-23T00:05:17.756Z,18.83
2018-06-23T00:07:46.822Z,17.33
2018-06-23T00:10:15.711Z,17.30
2018-06-23T00:12:44.614Z,16.87
2018-06-23T00:15:13.506Z,19.03
2018-06-23T00:17:42.387Z,18.63
2018-06-23T00:20:11.531Z,15.47
2018-06-23T00:22:40.412Z,18.33
2018-06-23T00:25:09.290Z,16.07
2018-06-23T00:27:38.170Z,16.13
2018-06-23T00:30:07.070Z,17.40
2018-06-23T00:32:35.957Z,19.40
2018-06-23T00:35:05.047Z,19.17
2018-06-23T00:37:33.977Z,18.60
2018-06-23T00:40:02.945Z,21.43
2018-06-23T00:42:31.831Z,18.83
2018-06-23T00:45:00.714Z,17.57
2018-06-23T00:47:29.582Z,21.57
2018-06-23T00:49:58.469Z,14.97
2018-06-23T00:52:27.411Z,18.70
2018-06-23T00:54:56.445Z,17.23
2018-06-23T00:57:25.172Z,16.30
2018-06-23T00:59:54.054Z,19.07
2018-06-23T01:02:23.333Z,19.33
2018-06-23T01:04:52.223Z,18.80
2018-06-23T01:07:21.107Z,15.90
2018-06-23T01:09:49.993Z,15.87
2018-06-23T01:12:18.899Z,17.93
2018-06-23T01:14:47.798Z,18.33
2018-06-23T01:17:16.673Z,19.03
2018-06-23T01:19:45.565Z,19.00
2018-06-23T01:22:14.441Z,21.17
2018-06-23T01:24:43.326Z,12.63
2018-06-23T01:27:12.215Z,19.87
2018-06-23T01:29:41.105Z,17.43
2018-06-23T01:32:09.997Z,16.07
2018-06-23T01:34:38.883Z,18.67
2018-06-23T01:37:07.774Z,22.87
2018-06-23T01:39:36.654Z,19.37
2018-06-23T01:42:05.614Z,18.40
2018-06-23T01:44:34.474Z,23.23
2018-06-23T01:47:03.382Z,21.17
2018-06-23T01:49:32.267Z,17.70
2018-06-23T01:52:01.174Z,18.57
2018-06-23T01:54:30.039Z,17.80
2018-06-23T01:56:58.935Z,17.57
2018-06-23T01:59:27.871Z,17.33
2018-06-23T02:01:56.791Z,18.40
2018-06-23T02:04:25.715Z,16.70
2018-06-23T02:06:54.593Z,17.07
2018-06-23T02:09:23.493Z,16.10
2018-06-23T02:11:52.399Z,19.83
2018-06-23T02:14:26.714Z,19.13
2018-06-23T02:17:00.997Z,15.70
2018-06-23T02:19:35.202Z,22.30
2018-06-23T02:22:09.659Z,22.37
2018-06-23T02:24:44.026Z,17.97
2018-06-23T02:27:18.411Z,19.13
2018-06-23T02:29:52.558Z,15.30
2018-06-23T02:32:27.043Z,19.43
2018-06-23T02:35:04.281Z,18.90
2018-06-23T02:37:34.418Z,19.27
2018-06-23T02:40:03.454Z,21.50
2018-06-23T02:42:32.350Z,18.23
2018-06-23T02:45:01.359Z,16.57
2018-06-23T02:47:30.238Z,18.80
2018-06-23T02:50:00.280Z,19.83
2018-06-23T02:52:30.524Z,20.57
2018-06-23T02:54:59.456Z,15.83
2018-06-23T02:57:28.459Z,17.57
2018-06-23T02:59:57.395Z,19.63
2018-06-23T03:02:26.334Z,19.27
2018-06-23T03:04:55.469Z,19.37
2018-06-23T03:07:24.390Z,17.30
2018-06-23T03:09:53.347Z,19.10
2018-06-23T03:12:22.230Z,18.27
2018-06-23T03:14:51.102Z,18.70
2018-06-23T03:17:20.095Z,18.07
2018-06-23T03:19:50.346Z,19.33
2018-06-23T03:22:19.442Z,25.20
2018-06-23T03:24:48.324Z,21.67
2018-06-23T03:27:17.221Z,16.93
2018-06-23T03:29:46.101Z,17.03
2018-06-23T03:32:15.000Z,20.33
2018-06-23T03:34:43.875Z,16.47
2018-06-23T03:37:12.767Z,19.93
2018-06-23T03:39:41.642Z,20.87
2018-06-23T03:42:10.537Z,18.37
2018-06-23T03:44:39.414Z,24.13
2018-06-23T03:47:08.318Z,17.20
2018-06-23T03:49:37.197Z,17.47
2018-06-23T03:52:06.103Z,20.20
2018-06-23T03:54:34.970Z,13.10
2018-06-23T03:57:03.864Z,16.33
2018-06-23T03:59:32.752Z,18.73
2018-06-23T04:02:01.635Z,17.90
2018-06-23T04:04:30.506Z,20.33
2018-06-23T04:06:59.395Z,19.73
2018-06-23T04:09:28.280Z,17.37
2018-06-23T04:11:57.206Z,15.37
2018-06-23T04:14:26.092Z,19.73
2018-06-23T04:16:55.006Z,18.13
2018-06-23T04:19:23.873Z,19.10
2018-06-23T04:21:52.762Z,18.03
2018-06-23T04:24:21.646Z,14.77
2018-06-23T04:26:50.530Z,19.07
2018-06-23T04:29:19.440Z,17.93
2018-06-23T04:31:48.288Z,16.87
2018-06-23T04:34:17.175Z,21.63
2018-06-23T04:36:46.087Z,18.30
2018-06-23T04:39:15.007Z,23.27
2018-06-23T04:41:44.134Z,17.60
2018-06-23T04:44:13.026Z,20.50
2018-06-23T04:46:41.906Z,16.20
2018-06-23T04:49:10.818Z,19.47
2018-06-23T04:51:39.695Z,16.23
2018-06-23T04:54:08.603Z,16.20
2018-06-23T04:56:37.487Z,21.13
2018-06-23T04:59:07.423Z,20.50
2018-06-23T05:01:36.390Z,19.57
2018-06-23T05:04:05.279Z,20.07
2018-06-23T05:06:34.439Z,19.20
2018-06-23T05:09:05.402Z,17.10
2018-06-23T05:11:34.579Z,19.63
2018-06-23T05:14:03.831Z,18.27
2018-06-23T05:16:32.710Z,18.60
2018-06-23T05:19:01.607Z,20.70
2018-06-23T05:21:30.529Z,24.33
2018-06-23T05:23:59.459Z,24.60
2018-06-23T05:26:28.373Z,17.93
2018-06-23T05:28:57.274Z,19.60
2018-06-23T05:31:26.161Z,18.10
2018-06-23T05:33:55.084Z,18.40
2018-06-23T05:36:23.970Z,24.07
2018-06-23T05:38:52.870Z,22.60
2018-06-23T05:41:21.524Z,15.80
2018-06-23T05:43:50.321Z,19.97
2018-06-23T05:46:19.647Z,19.07
2018-06-23T05:48:48.549Z,14.27
2018-06-23T05:51:17.876Z,18.63
2018-06-23T05:53:46.801Z,15.17
2018-06-23T05:56:15.707Z,14.20
2018-06-23T05:58:45.679Z,14.43
2018-06-23T06:01:14.530Z,19.73
2018-06-23T06:03:43.427Z,15.77
2018-06-23T06:06:12.311Z,14.70
2018-06-23T06:08:41.242Z,20.40
2018-06-23T06:11:10.110Z,19.57
2018-06-23T06:13:39.038Z,13.93
2018-06-23T06:16:08.247Z,18.90
2018-06-23T06:18:37.167Z,18.10
2018-06-23T06:21:06.114Z,18.23
2018-06-23T06:23:35.013Z,16.43
2018-06-23T06:26:03.914Z,16.53
2018-06-23T06:28:32.798Z,14.50
2018-06-23T06:31:01.668Z,13.80
2018-06-23T06:33:30.572Z,13.40
2018-06-23T06:35:59.442Z,10.77
2018-06-23T06:38:28.329Z,11.17
2018-06-23T06:40:57.197Z,12.30
2018-06-23T06:43:26.145Z,12.57
2018-06-23T06:45:55.323Z,13.33
2018-06-23T06:48:25.342Z,9.90
2018-06-23T06:50:54.266Z,12.33
2018-06-23T06:53:23.079Z,7.17
2018-06-23T06:55:51.991Z,6.47
2018-06-23T06:58:20.846Z,8.80
2018-06-23T07:00:49.727Z,8.93
2018-06-23T07:03:18.981Z,5.37
2018-06-23T07:05:47.843Z,7.90
2018-06-23T07:08:16.723Z,7.93
2018-06-23T07:10:45.626Z,12.43
2018-06-23T07:13:14.522Z,9.00
2018-06-23T07:15:43.411Z,10.80
2018-06-23T07:18:12.288Z,12.33
2018-06-23T07:20:41.182Z,10.73
2018-06-23T07:23:10.058Z,10.33
2018-06-23T07:25:38.945Z,9.37
2018-06-23T07:28:07.813Z,8.07
2018-06-23T07:30:36.699Z,12.00
2018-06-23T07:33:05.587Z,12.87
2018-06-23T07:35:34.487Z,10.20
2018-06-23T07:38:03.366Z,15.57
2018-06-23T07:40:32.865Z,13.17
2018-06-23T07:43:01.891Z,15.87
2018-06-23T07:45:31.976Z,15.50
2018-06-23T07:48:00.867Z,17.40
2018-06-23T07:50:29.997Z,13.47
2018-06-23T07:52:58.878Z,18.87
2018-06-23T07:55:27.767Z,15.43
2018-06-23T07:57:56.638Z,15.97
2018-06-23T08:00:25.522Z,14.97
2018-06-23T08:02:54.395Z,14.87
2018-06-23T08:05:23.277Z,14.00
2018-06-23T08:07:52.158Z,14.63
2018-06-23T08:10:21.052Z,18.17
2018-06-23T08:12:49.941Z,15.47
2018-06-23T08:15:18.843Z,11.93
2018-06-23T08:17:47.723Z,13.70
2018-06-23T08:20:16.631Z,16.73
2018-06-23T08:22:45.502Z,14.83
2018-06-23T08:25:14.413Z,12.97
2018-06-23T08:27:43.285Z,15.07
2018-06-23T08:30:12.223Z,13.13
2018-06-23T08:32:41.094Z,9.20
2018-06-23T08:35:09.983Z,12.20
2018-06-23T08:37:39.120Z,13.67
2018-06-23T08:40:08.010Z,13.47
2018-06-23T08:42:36.926Z,13.20
2018-06-23T08:45:05.831Z,12.10
2018-06-23T08:47:34.698Z,15.03
2018-06-23T08:50:03.603Z,8.97
2018-06-23T08:52:32.479Z,11.30
2018-06-23T08:55:01.404Z,11.60
2018-06-23T08:57:30.272Z,12.80
2018-06-23T09:00:00.806Z,11.33
2018-06-23T09:02:30.325Z,10.37
2018-06-23T09:04:59.130Z,10.40
2018-06-23T09:07:28.024Z,10.03
2018-06-23T09:09:56.885Z,13.83
2018-06-23T09:12:25.798Z,12.87
2018-06-23T09:32:32.375Z,12.77
2018-06-23T09:35:01.283Z,12.13
2018-06-23T09:37:30.173Z,11.70
2018-06-23T09:39:59.066Z,10.03
2018-06-23T09:42:27.971Z,13.73
2018-06-23T09:44:56.865Z,10.47
2018-06-23T09:47:25.762Z,11.87
2018-06-23T09:49:54.637Z,11.43
2018-06-23T09:52:23.547Z,12.30
2018-06-23T09:54:52.454Z,12.37
2018-06-23T09:57:21.345Z,8.83
2018-06-23T09:59:50.225Z,10.27
2018-06-23T10:02:19.302Z,9.17
2018-06-23T10:04:48.200Z,9.03
2018-06-23T10:07:17.139Z,10.43
2018-06-23T10:09:45.971Z,11.07
2018-06-23T10:12:14.882Z,10.57
2018-06-23T10:14:43.847Z,13.43
2018-06-23T10:17:12.794Z,9.63
2018-06-23T10:19:41.695Z,10.47
2018-06-23T10:22:10.589Z,12.87
2018-06-23T10:24:39.590Z,10.53
2018-06-23T10:27:08.375Z,9.77
2018-06-23T10:29:37.251Z,9.17
2018-06-23T10:32:06.307Z,12.03
2018-06-23T10:34:35.296Z,10.53
2018-06-23T10:37:04.185Z,8.63
2018-06-23T10:39:33.062Z,9.93
2018-06-23T10:42:01.958Z,11.87
2018-06-23T10:44:30.839Z,9.00
2018-06-23T10:46:59.747Z,9.33
2018-06-23T10:49:28.626Z,9.47
2018-06-23T10:51:57.518Z,8.70
2018-06-23T10:54:26.563Z,12.67
2018-06-23T10:56:55.452Z,7.13
2018-06-23T10:59:24.334Z,11.43
2018-06-23T11:01:53.314Z,12.00
2018-06-23T11:04:22.221Z,11.20
2018-06-23T11:06:51.116Z,8.77
2018-06-23T11:09:20.025Z,11.43
2018-06-23T11:11:48.902Z,10.27
2018-06-23T11:14:17.811Z,13.00
2018-06-23T11:16:46.690Z,14.47
2018-06-23T11:19:15.582Z,12.33
2018-06-23T11:21:44.470Z,11.70
2018-06-23T11:24:13.500Z,10.73
2018-06-23T11:26:43.020Z,9.63
2018-06-23T11:29:11.909Z,9.97
2018-06-23T11:31:40.890Z,9.70
2018-06-23T11:34:11.035Z,8.43
2018-06-23T11:36:39.910Z,13.90
2018-06-23T11:39:09.902Z,11.03
2018-06-23T11:41:38.811Z,9.50
2018-06-23T11:44:07.798Z,10.30
2018-06-23T11:46:36.909Z,11.17
2018-06-23T11:49:05.807Z,10.47
2018-06-23T11:51:34.866Z,10.90
2018-06-23T11:54:03.841Z,11.07
2018-06-23T11:56:32.714Z,12.77
2018-06-23T11:59:01.611Z,8.77
2018-06-23T12:01:30.536Z,7.83
2018-06-23T12:03:59.422Z,11.80
2018-06-23T12:06:28.636Z,13.10
2018-06-23T12:08:57.920Z,8.33
2018-06-23T12:11:26.830Z,9.10
2018-06-23T12:13:55.766Z,10.20
2018-06-23T12:16:24.646Z,13.50
2018-06-23T12:18:53.534Z,11.33
2018-06-23T12:21:22.469Z,9.40
2018-06-23T12:23:51.379Z,6.30
2018-06-23T12:26:20.263Z,9.37
2018-06-23T12:28:49.167Z,9.10
2018-06-23T12:31:18.389Z,8.40
2018-06-23T12:33:47.290Z,6.70
2018-06-23T12:36:22.083Z,6.97
2018-06-23T12:38:50.978Z,7.93
2018-06-23T12:41:19.872Z,10.40
2018-06-23T12:43:52.019Z,11.07
2018-06-23T12:46:20.903Z,10.47
2018-06-23T12:48:50.082Z,9.10
2018-06-23T12:51:18.946Z,9.43
2018-06-23T12:53:47.848Z,15.40
2018-06-23T12:56:16.730Z,10.20
2018-06-23T12:58:45.619Z,8.23
2018-06-23T13:01:14.516Z,10.13
2018-06-23T13:03:43.414Z,6.37
2018-06-23T13:06:12.302Z,7.80
2018-06-23T13:08:41.236Z,9.30
2018-06-23T13:11:10.119Z,7.43
2018-06-23T13:13:39.037Z,8.23
2018-06-23T13:16:07.926Z,5.87
2018-06-23T13:18:36.819Z,7.73
2018-06-23T13:21:05.696Z,6.07
2018-06-23T13:23:34.706Z,10.60
2018-06-23T13:26:03.600Z,8.87
2018-06-23T13:28:32.535Z,8.63
2018-06-23T13:31:01.187Z,7.43
2018-06-23T13:33:29.937Z,6.43
2018-06-23T13:35:58.839Z,8.53
2018-06-23T13:38:27.731Z,9.87
2018-06-23T13:41:03.395Z,7.07
2018-06-23T13:43:33.174Z,8.93
2018-06-23T13:46:02.206Z,6.93
2018-06-23T13:48:31.205Z,8.30
2018-06-23T13:51:00.298Z,7.37
2018-06-23T13:53:29.287Z,6.50
2018-06-23T13:55:58.242Z,5.13
2018-06-23T13:58:27.215Z,8.20
2018-06-23T14:00:56.108Z,8.50
2018-06-23T14:03:25.205Z,7.70
2018-06-23T14:05:54.147Z,11.57
2018-06-23T14:08:23.034Z,7.23
2018-06-23T14:10:51.937Z,6.77
2018-06-23T14:13:20.842Z,7.20
2018-06-23T14:15:49.742Z,6.83
2018-06-23T14:18:18.617Z,6.97
2018-06-23T14:20:47.510Z,7.13
2018-06-23T14:23:16.394Z,5.10
2018-06-23T14:25:45.307Z,7.53
2018-06-23T14:28:14.171Z,5.33
2018-06-23T14:30:43.069Z,6.93
2018-06-23T14:33:12.316Z,7.50
2018-06-23T14:35:41.223Z,9.20
2018-06-23T14:38:10.142Z,6.60
2018-06-23T14:40:39.274Z,6.50
2018-06-23T14:43:08.154Z,7.03
2018-06-23T14:45:37.074Z,7.10
2018-06-23T14:48:06.293Z,8.67
2018-06-23T14:50:35.195Z,5.93
2018-06-23T14:53:04.077Z,6.50
2018-06-23T14:55:32.972Z,7.57
2018-06-23T14:58:01.864Z,4.67
2018-06-23T15:00:30.788Z,6.17
2018-06-23T15:02:59.684Z,7.57
2018-06-23T15:05:30.204Z,9.30
2018-06-23T15:08:10.519Z,9.83
2018-06-23T15:10:50.800Z,10.07
2018-06-23T15:13:19.763Z,10.40
2018-06-23T15:15:48.700Z,9.20
2018-06-23T15:18:17.570Z,6.17
2018-06-23T15:20:46.483Z,8.10
2018-06-23T15:23:15.355Z,6.20
2018-06-23T15:25:44.242Z,7.33
2018-06-23T15:28:13.488Z,6.87
2018-06-23T15:30:42.380Z,8.47
2018-06-23T15:33:11.263Z,6.70
2018-06-23T15:35:40.158Z,7.40
2018-06-23T15:38:09.033Z,5.13
2018-06-23T15:40:38.020Z,7.57
2018-06-23T15:43:06.867Z,6.67
2018-06-23T15:45:35.762Z,5.50
2018-06-23T15:48:04.648Z,4.03
2018-06-23T15:50:33.539Z,8.60
2018-06-23T15:53:02.408Z,6.47
2018-06-23T15:55:31.320Z,10.53
2018-06-23T15:58:00.210Z,7.30
2018-06-23T16:00:29.111Z,8.77
2018-06-23T16:02:58.113Z,7.73
2018-06-23T16:05:26.985Z,9.03
2018-06-23T16:07:55.878Z,5.40
2018-06-23T16:10:25.682Z,6.57
2018-06-23T16:12:55.090Z,4.63
2018-06-23T16:15:23.995Z,6.27
2018-06-23T16:17:52.867Z,7.23
2018-06-23T16:20:21.727Z,8.67
2018-06-23T16:22:50.709Z,9.00
2018-06-23T16:25:19.570Z,5.60
2018-06-23T16:27:48.463Z,9.77
2018-06-23T16:30:17.362Z,6.87
2018-06-23T16:32:46.272Z,8.53
2018-06-23T16:35:15.447Z,6.27
2018-06-23T16:37:44.045Z,6.80
2018-06-23T16:40:12.923Z,9.83
2018-06-23T16:42:41.597Z,8.60
2018-06-23T16:45:10.346Z,7.53
2018-06-23T16:47:39.235Z,9.47
2018-06-23T16:50:08.098Z,7.03
2018-06-23T16:52:37.125Z,9.20
2018-06-23T16:55:06.151Z,6.97
2018-06-23T16:57:35.042Z,6.87
2018-06-23T17:00:04.458Z,10.73
2018-06-23T17:02:33.342Z,7.60
2018-06-23T17:05:02.533Z,10.00
2018-06-23T17:07:31.430Z,5.33
2018-06-23T17:10:00.305Z,6.07
2018-06-23T17:12:29.314Z,11.33
2018-06-23T17:14:58.202Z,8.67
2018-06-23T17:17:27.098Z,5.83
2018-06-23T17:19:55.987Z,9.07
2018-06-23T17:22:24.871Z,6.20
2018-06-23T17:24:53.748Z,8.03
2018-06-23T17:27:22.635Z,8.20
2018-06-23T17:29:51.522Z,9.87
2018-06-23T17:32:20.444Z,8.23
2018-06-23T17:34:49.323Z,10.13
2018-06-23T17:37:18.223Z,5.93
2018-06-23T17:39:47.111Z,7.20
2018-06-23T17:42:16.011Z,6.70
2018-06-23T17:44:44.914Z,8.93
2018-06-23T17:47:13.798Z,9.23
2018-06-23T17:49:42.973Z,6.63
2018-06-23T17:52:11.856Z,13.27
2018-06-23T17:54:40.825Z,8.60
2018-06-23T17:57:09.766Z,8.20
2018-06-23T17:59:38.631Z,10.07
2018-06-23T18:02:07.769Z,12.23
2018-06-23T18:04:36.659Z,8.07
2018-06-23T18:07:05.563Z,7.47
2018-06-23T18:09:34.435Z,8.47
2018-06-23T18:12:03.308Z,8.83
2018-06-23T18:14:32.187Z,7.10
2018-06-23T18:17:01.091Z,7.63
2018-06-23T18:19:30.012Z,7.50
2018-06-23T18:22:05.347Z,7.20
2018-06-23T18:24:34.229Z,5.73
2018-06-23T18:27:03.098Z,9.40
2018-06-23T18:29:32.061Z,7.13
2018-06-23T18:32:00.926Z,6.90
2018-06-23T18:34:29.814Z,7.13
2018-06-23T18:36:58.695Z,9.87
2018-06-23T18:39:27.576Z,8.17
2018-06-23T18:41:56.458Z,8.20
2018-06-23T18:44:25.357Z,7.30
2018-06-23T18:46:54.494Z,6.43
2018-06-23T18:49:23.370Z,8.37
2018-06-23T18:51:52.557Z,5.40
2018-06-23T18:54:21.433Z,6.17
2018-06-23T18:56:50.320Z,4.87
2018-06-23T18:59:19.202Z,9.63
2018-06-23T19:01:48.083Z,6.83
2018-06-23T19:04:16.987Z,7.83
2018-06-23T19:06:45.874Z,8.00
2018-06-23T19:09:14.929Z,9.07
2018-06-23T19:11:43.661Z,7.90
2018-06-23T19:14:13.077Z,8.20
2018-06-23T19:16:41.958Z,7.57
2018-06-23T19:19:10.855Z,8.30
2018-06-23T19:21:39.738Z,8.83
2018-06-23T19:24:08.635Z,7.10
2018-06-23T19:26:37.506Z,7.40
2018-06-23T19:29:06.398Z,6.97
2018-06-23T19:31:35.513Z,6.23
2018-06-23T19:34:04.441Z,9.13
2018-06-23T19:36:33.574Z,5.50
2018-06-23T19:39:02.521Z,8.13
2018-06-23T19:41:31.426Z,7.90
2018-06-23T19:44:00.380Z,7.93
2018-06-23T19:46:29.282Z,8.33
2018-06-23T19:48:58.154Z,7.97
2018-06-23T19:51:27.040Z,6.63
2018-06-23T19:53:55.961Z,7.67
2018-06-23T19:56:24.802Z,6.03
2018-06-23T19:58:53.698Z,6.20
2018-06-23T20:01:22.574Z,6.80
2018-06-23T20:03:51.730Z,8.97
2018-06-23T20:06:20.618Z,4.27
2018-06-23T20:08:49.718Z,5.73
2018-06-23T20:11:18.896Z,7.13
2018-06-23T20:13:47.797Z,7.20
2018-06-23T20:16:16.690Z,5.37
2018-06-23T20:18:45.588Z,5.87
2018-06-23T20:21:16.178Z,6.50
2018-06-23T20:23:45.405Z,6.00
2018-06-23T20:26:14.270Z,6.33
2018-06-23T20:28:43.173Z,7.13
2018-06-23T20:31:12.034Z,6.87
2018-06-23T20:33:40.936Z,6.23
2018-06-23T20:36:09.810Z,6.60
2018-06-23T20:38:38.683Z,6.27
2018-06-23T20:41:07.582Z,6.70
2018-06-23T20:43:36.547Z,3.43
2018-06-23T20:46:05.449Z,5.00
2018-06-23T20:48:34.318Z,6.00
2018-06-23T20:51:03.202Z,4.63
2018-06-23T20:53:32.083Z,3.10
2018-06-23T20:56:00.986Z,6.60
2018-06-23T20:58:29.965Z,5.10
2018-06-23T21:00:58.841Z,8.60
2018-06-23T21:03:27.662Z,7.03
2018-06-23T21:05:56.559Z,5.60
2018-06-23T21:08:25.444Z,6.63
2018-06-23T21:10:54.351Z,4.63
2018-06-23T21:13:23.248Z,5.57
2018-06-23T21:15:52.182Z,5.57
2018-06-23T21:18:21.042Z,6.03
2018-06-23T21:20:49.931Z,6.37
2018-06-23T21:23:18.812Z,6.00
2018-06-23T21:25:47.710Z,6.60
2018-06-23T21:28:16.591Z,5.10
2018-06-23T21:30:45.564Z,5.87
2018-06-23T21:33:14.435Z,5.90
2018-06-23T21:35:43.261Z,4.73
2018-06-23T21:38:12.139Z,6.53
2018-06-23T21:40:41.040Z,7.10
2018-06-23T21:43:09.985Z,6.73
2018-06-23T21:45:38.839Z,4.10
2018-06-23T21:48:07.719Z,10.43
2018-06-23T21:50:36.598Z,3.80
2018-06-23T21:53:05.485Z,7.37
2018-06-23T21:55:36.174Z,7.03
2018-06-23T21:58:05.283Z,5.13
2018-06-23T22:00:36.684Z,3.93
2018-06-23T22:03:06.747Z,4.67
2018-06-23T22:05:35.783Z,4.17
2018-06-23T22:08:05.406Z,5.00
2018-06-23T22:10:36.076Z,6.37
2018-06-23T22:13:06.219Z,3.00
2018-06-23T22:15:36.385Z,4.20
2018-06-23T22:18:05.663Z,5.07
2018-06-23T22:20:35.878Z,5.30
2018-06-23T22:23:05.428Z,2.40
2018-06-23T22:25:35.603Z,4.20
2018-06-23T22:28:05.021Z,3.33
2018-06-23T22:30:34.879Z,4.27
2018-06-23T22:33:04.417Z,4.67
2018-06-23T22:35:34.516Z,7.37
2018-06-23T22:38:03.553Z,4.80
2018-06-23T22:40:33.264Z,5.37
2018-06-23T22:43:02.435Z,7.30
2018-06-23T22:45:32.141Z,5.87
2018-06-23T22:48:01.850Z,5.03
2018-06-23T22:50:31.692Z,5.27
2018-06-23T22:53:00.567Z,5.97
2018-06-23T22:55:29.591Z,7.93
2018-06-23T22:58:00.332Z,5.53
2018-06-23T23:00:29.690Z,5.67
2018-06-23T23:02:58.946Z,7.70
2018-06-23T23:05:28.798Z,5.30
2018-06-23T23:07:58.714Z,9.57
2018-06-23T23:10:27.962Z,4.43
2018-06-23T23:12:57.289Z,5.70
2018-06-23T23:15:26.285Z,5.77
2018-06-23T23:17:56.016Z,7.43
2018-06-23T23:20:25.239Z,6.63
2018-06-23T23:22:54.317Z,5.90
2018-06-23T23:25:23.691Z,6.53
2018-06-23T23:27:53.210Z,7.70
2018-06-23T23:30:22.159Z,5.63
2018-06-23T23:32:51.884Z,6.93
2018-06-23T23:35:21.143Z,6.80
2018-06-23T23:37:50.901Z,7.93
2018-06-23T23:40:19.785Z,4.70
2018-06-23T23:42:50.546Z,4.30
2018-06-23T23:45:19.594Z,3.93
2018-06-23T23:47:48.631Z,8.63
2018-06-23T23:50:18.098Z,7.47
2018-06-23T23:52:48.077Z,6.43
2018-06-23T23:55:17.253Z,9.27
2018-06-23T23:57:47.266Z,6.13
